Time;durP1;ratioP1;P1;durP2;ratioP2;P2;SDS_P1;SDS_P2;PMS_P1;PMS_P2;Temp;Humidity;BMP_temperature;BMP_pressure;BME280_temperature;BME280_humidity;BME280_pressure;Samples;Min_cycle;Max_cycle;Signal;HPM_P1;HPM_P2
2022/07/17 00:00:33;;;;;;;;;;;;;;;;;;;;;
2022/07/17 00:10:27;;;;;;;;;2.25;2.25;;;;;23.17;34.35;102103.31;5734650;24;45517;-88
2022/07/17 00:12:57;;;;;;;;;1.25;1.25;;;;;23.15;34.47;102099.84;5712021;24;45509;-87
2022/07/17 00:15:32;;;;;;;;;4.00;4.00;;;;;23.14;34.32;102106.13;5898836;23;45584;-86
2022/07/17 00:17:58;;;;;;;;;4.00;3.00;;;;;23.05;34.86;102103.78;6161817;22;47452;-87
2022/07/17 00:20:30;;;;;;;;;2.50;2.50;;;;;23.02;34.63;102109.25;6246104;22;45193;-86
2022/07/17 00:23:15;;;;;;;;;3.50;3.00;;;;;23.01;34.61;102116.41;6245233;22;45542;-87
2022/07/17 00:25:40;;;;;;;;;2.50;2.50;;;;;22.94;35.08;102122.91;6246028;22;45261;-86
2022/07/17 00:28:06;;;;;;;;;4.00;3.00;;;;;22.93;34.69;102118.44;6247971;22;46171;-86
2022/07/17 00:30:37;;;;;;;;;4.50;4.00;;;;;22.85;35.21;102107.06;6247166;22;45220;-86
2022/07/17 00:33:11;;;;;;;;;2.33;2.33;;;;;22.87;35.31;102114.16;6218923;22;45432;-85
2022/07/17 00:35:44;;;;;;;;;4.00;3.00;;;;;22.86;34.94;102124.97;6218777;22;45475;-85
2022/07/17 00:38:13;;;;;;;;;4.00;4.00;;;;;22.82;35.34;102117.94;6218790;22;47302;-86
2022/07/17 00:40:58;;;;;;;;;2.00;2.00;;;;;22.72;35.36;102103.94;6219604;22;45649;-85
2022/07/17 00:43:26;;;;;;;;;2.50;2.50;;;;;22.68;35.47;102097.78;6220586;22;45240;-86
2022/07/17 00:46:03;;;;;;;;;2.75;2.75;;;;;22.69;35.70;102104.00;6247758;22;45225;-86
2022/07/17 00:48:31;;;;;;;;;4.50;3.75;;;;;22.70;35.52;102110.28;6247057;22;47472;-86
2022/07/17 00:50:56;;;;;;;;;3.00;3.00;;;;;22.65;35.45;102105.94;6220890;22;45371;-85
2022/07/17 00:53:23;;;;;;;;;4.25;2.75;;;;;22.67;35.85;102117.50;6220809;22;45373;-85
2022/07/17 00:55:51;;;;;;;;;2.00;2.00;;;;;22.60;35.94;102097.16;6248684;22;45196;-85
2022/07/17 00:58:27;;;;;;;;;2.25;2.25;;;;;22.65;35.96;102118.47;6245807;22;46937;-85
2022/07/17 01:00:56;;;;;;;;;5.25;3.25;;;;;22.58;35.93;102114.22;6248280;22;45165;-85
2022/07/17 01:03:27;;;;;;;;;2.75;2.00;;;;;22.49;36.03;102110.03;6220671;22;45463;-85
2022/07/17 01:05:53;;;;;;;;;6.25;4.00;;;;;22.55;36.26;102120.56;6220364;22;45359;-85
2022/07/17 01:08:21;;;;;;;;;2.50;2.50;;;;;22.49;36.14;102123.47;6220533;22;47192;-86
2022/07/17 01:10:54;;;;;;;;;3.25;3.25;;;;;22.44;36.58;102102.13;6221519;22;45343;-84
2022/07/17 01:13:20;;;;;;;;;2.50;2.50;;;;;22.46;36.49;102115.50;6251820;22;45297;-85
2022/07/17 01:15:49;;;;;;;;;6.00;3.50;;;;;22.43;36.04;102108.44;6221464;22;45710;-85
2022/07/17 01:18:17;;;;;;;;;2.33;2.33;;;;;22.46;36.49;102116.38;6221177;22;48282;-85
2022/07/17 01:20:48;;;;;;;;;2.00;2.00;;;;;22.42;36.54;102122.75;6220891;22;45192;-84
2022/07/17 01:23:19;;;;;;;;;3.75;3.75;;;;;22.33;36.28;102103.41;6220681;22;45276;-85
2022/07/17 01:25:53;;;;;;;;;3.25;2.75;;;;;22.37;36.46;102118.47;6246646;22;45704;-85
2022/07/17 01:28:26;;;;;;;;;6.00;4.00;;;;;22.32;36.40;102115.94;6220140;22;45464;-85
2022/07/17 01:31:03;;;;;;;;;3.50;2.50;;;;;22.23;36.71;102109.03;6224472;22;45177;-85
2022/07/17 01:33:31;;;;;;;;;2.25;2.00;;;;;22.23;36.88;102109.03;6246368;22;45434;-85
2022/07/17 01:35:59;;;;;;;;;4.00;4.00;;;;;22.27;36.75;102115.22;6271864;22;45366;-85
2022/07/17 01:38:37;;;;;;;;;;;;;;;;;;;;;
2022/07/17 01:41:10;;;;;;;;;3.50;3.50;;;;;22.10;36.93;102096.00;6247137;22;71718;-86
2022/07/17 01:43:47;;;;;;;;;2.75;2.75;;;;;22.11;36.90;102098.66;6248614;22;45247;-86
2022/07/17 01:46:16;;;;;;;;;3.00;3.00;;;;;22.17;36.95;102111.88;6271323;22;45193;-85
2022/07/17 01:48:46;;;;;;;;;4.00;3.00;;;;;22.11;37.01;102103.16;6245873;22;47427;-85
2022/07/17 01:51:21;;;;;;;;;3.50;3.00;;;;;22.12;37.06;102102.22;6245975;22;45698;-85
2022/07/17 01:53:49;;;;;;;;;4.00;3.00;;;;;22.01;37.21;102087.31;6248240;22;45171;-85
2022/07/17 01:56:25;;;;;;;;;4.50;3.00;;;;;21.95;36.91;102081.28;6246782;22;45407;-85
2022/07/17 01:58:50;;;;;;;;;2.00;2.00;;;;;22.04;37.26;102099.75;6248607;22;45457;-85
2022/07/17 02:01:21;;;;;;;;;2.00;2.00;;;;;21.99;37.06;102099.88;6246334;22;45270;-85
2022/07/17 02:03:57;;;;;;;;;3.25;3.00;;;;;21.89;37.21;102084.13;6248700;22;45237;-85
2022/07/17 02:06:23;;;;;;;;;2.75;2.75;;;;;21.83;37.71;102073.59;6252100;22;45391;-85
2022/07/17 02:08:50;;;;;;;;;3.00;3.00;;;;;21.80;37.98;102075.41;6247393;22;46828;-85
2022/07/17 02:11:25;;;;;;;;;4.00;4.00;;;;;21.88;37.69;102091.28;6246273;22;45449;-84
2022/07/17 02:13:52;;;;;;;;;4.00;4.00;;;;;21.86;37.66;102101.16;6247891;22;45187;-85
2022/07/17 02:16:18;;;;;;;;;2.75;2.75;;;;;21.73;37.56;102068.50;6245960;22;45736;-85
2022/07/17 02:18:43;;;;;;;;;3.00;3.00;;;;;21.70;38.02;102067.69;6247326;22;45533;-85
2022/07/17 02:21:16;;;;;;;;;3.00;3.00;;;;;21.77;37.77;102088.03;6245875;22;45172;-85
2022/07/17 02:23:41;;;;;;;;;4.00;2.00;;;;;21.65;38.16;102077.66;6245593;22;45361;-85
2022/07/17 02:26:08;;;;;;;;;4.75;2.75;;;;;21.72;38.03;102096.22;6245979;22;45301;-85
2022/07/17 02:28:36;;;;;;;;;3.50;3.00;;;;;21.60;37.92;102072.47;6247423;22;45313;-85
2022/07/17 02:31:04;;;;;;;;;2.50;2.00;;;;;21.51;38.43;102065.53;6244903;22;45228;-85
2022/07/17 02:33:40;;;;;;;;;2.50;2.50;;;;;21.61;38.30;102095.66;6247447;22;45208;-85
2022/07/17 02:36:06;;;;;;;;;2.50;2.50;;;;;21.56;38.29;102085.03;6245689;22;45452;-85
2022/07/17 02:38:31;;;;;;;;;4.50;3.25;;;;;21.51;38.36;102089.66;6247218;22;45284;-85
2022/07/17 02:41:33;;;;;;;;;;;;;;;;;;;;;
2022/07/17 02:43:58;;;;;;;;;2.00;2.00;;;;;21.42;38.20;102078.34;6247522;22;67518;-84
2022/07/17 02:46:29;;;;;;;;;4.00;4.00;;;;;21.40;38.67;102080.16;6245775;22;45361;-84
2022/07/17 02:48:57;;;;;;;;;5.00;5.00;;;;;21.35;38.53;102066.84;6245811;22;47176;-88
2022/07/17 02:51:23;;;;;;;;;5.00;4.75;;;;;21.36;38.48;102074.88;6245654;22;45328;-87
2022/07/17 02:53:54;;;;;;;;;4.75;4.75;;;;;21.40;38.60;102083.72;6248164;22;45423;-88
2022/07/17 02:56:24;;;;;;;;;5.00;5.00;;;;;21.24;38.60;102079.66;6250078;22;45506;-87
2022/07/17 02:58:52;;;;;;;;;7.50;6.00;;;;;21.20;39.14;102073.53;6276223;22;48002;-87
2022/07/17 03:01:24;;;;;;;;;6.00;5.00;;;;;21.18;39.12;102079.84;6250124;22;45308;-89
2022/07/17 03:03:49;;;;;;;;;6.00;6.00;;;;;21.22;39.02;102089.53;6249141;22;45338;-87
2022/07/17 03:06:15;;;;;;;;;5.25;5.25;;;;;21.17;39.26;102088.78;6248267;22;45430;-87
2022/07/17 03:08:42;;;;;;;;;5.25;5.25;;;;;21.00;39.38;102076.72;6246196;22;47187;-88
2022/07/17 03:11:12;;;;;;;;;8.00;6.00;;;;;21.06;39.33;102091.72;6272612;22;45379;-87
2022/07/17 03:13:40;;;;;;;;;6.00;6.00;;;;;20.87;39.75;102062.75;6246044;22;45397;-88
2022/07/17 03:16:07;;;;;;;;;7.25;4.25;;;;;20.99;39.54;102084.81;6246695;22;45502;-88
2022/07/17 03:18:33;;;;;;;;;6.50;6.00;;;;;20.95;39.45;102075.94;6245101;22;47603;-87
2022/07/17 03:20:58;;;;;;;;;8.75;8.75;;;;;20.96;39.72;102088.44;6245966;22;45198;-88
2022/07/17 03:23:28;;;;;;;;;11.75;9.00;;;;;20.95;39.97;102085.78;6249604;22;45162;-87
2022/07/17 03:25:58;;;;;;;;;10.50;10.50;;;;;20.77;39.73;102065.69;6246782;22;45339;-87
2022/07/17 03:28:24;;;;;;;;;8.50;7.25;;;;;20.89;40.21;102095.72;6272925;22;48216;-87
2022/07/17 03:30:50;;;;;;;;;13.25;11.75;;;;;20.89;39.82;102100.22;6247186;22;45877;-87
2022/07/17 03:33:17;;;;;;;;;8.25;8.25;;;;;20.69;40.17;102072.16;6246869;22;45272;-88
2022/07/17 03:35:45;;;;;;;;;11.75;10.25;;;;;20.66;39.78;102076.66;6249326;22;45357;-87
2022/07/17 03:38:11;;;;;;;;;11.75;10.75;;;;;20.65;40.05;102088.31;6246341;22;47942;-88
2022/07/17 03:40:38;;;;;;;;;12.00;11.50;;;;;20.79;40.25;102123.63;6247399;22;45483;-88
2022/07/17 03:43:07;;;;;;;;;15.50;14.25;;;;;20.67;40.43;102094.50;6247362;22;45298;-87
2022/07/17 03:45:32;;;;;;;;;14.50;14.25;;;;;20.78;40.33;102121.88;6272855;22;45405;-87
2022/07/17 03:48:00;;;;;;;;;15.25;14.50;;;;;20.76;40.35;102113.00;6249998;22;46837;-86
2022/07/17 03:50:26;;;;;;;;;17.00;16.00;;;;;20.80;40.69;102113.84;6251460;22;45351;-86
2022/07/17 03:52:51;;;;;;;;;19.25;17.00;;;;;20.78;40.27;102118.34;6253030;22;45687;-86
2022/07/17 03:55:17;;;;;;;;;14.00;13.50;;;;;20.79;40.18;102120.97;6277001;22;45414;-87
2022/07/17 03:57:47;;;;;;;;;18.50;16.50;;;;;20.62;40.58;102094.63;6251401;22;46451;-88
2022/07/17 04:00:13;;;;;;;;;18.75;15.25;;;;;20.72;40.28;102102.44;6249487;22;45670;-87
2022/07/17 04:02:41;;;;;;;;;13.25;12.50;;;;;20.69;40.58;102096.22;6246958;22;45431;-87
2022/07/17 04:05:20;;;;;;;;;;;;;;;;;;;;;
2022/07/17 04:07:48;;;;;;;;;9.25;8.25;;;;;20.70;40.61;102099.78;6247538;22;74431;-87
2022/07/17 04:10:15;;;;;;;;;10.75;8.75;;;;;20.48;41.06;102073.50;6247658;22;45456;-88
2022/07/17 04:12:43;;;;;;;;;8.50;8.50;;;;;20.62;41.07;102101.78;6247704;22;45303;-87
2022/07/17 04:15:11;;;;;;;;;7.00;7.00;;;;;20.61;40.98;102110.69;6247739;22;45521;-87
2022/07/17 04:17:46;;;;;;;;;10.00;10.00;;;;;20.53;40.65;102101.94;6247018;22;45318;-88
2022/07/17 04:20:17;;;;;;;;;9.25;7.75;;;;;20.59;41.17;102120.56;6252061;22;45529;-87
2022/07/17 04:22:42;;;;;;;;;9.75;9.25;;;;;20.59;41.09;102128.59;6279187;22;45264;-87
2022/07/17 04:25:08;;;;;;;;;10.00;8.25;;;;;20.41;41.44;102109.34;6253484;22;45487;-87
2022/07/17 04:27:36;;;;;;;;;5.25;5.00;;;;;20.57;41.17;102142.00;6249784;22;46916;-87
2022/07/17 04:30:06;;;;;;;;;8.25;7.75;;;;;20.46;40.99;102123.50;6250097;22;45264;-87
2022/07/17 04:32:42;;;;;;;;;6.50;4.75;;;;;20.59;41.22;102144.66;6280549;22;44730;-88
2022/07/17 04:35:16;;;;;;;;;7.00;4.50;;;;;20.60;40.82;102147.28;6295996;22;44778;-87
2022/07/17 04:37:51;;;;;;;;;5.00;4.00;;;;;20.56;41.03;102137.56;6270601;22;46652;-87
2022/07/17 04:40:27;;;;;;;;;4.00;4.00;;;;;20.62;41.08;102158.84;6273105;22;44746;-88
2022/07/17 04:42:54;;;;;;;;;6.50;6.00;;;;;20.52;40.86;102148.34;6271249;22;44709;-89
2022/07/17 04:45:31;;;;;;;;;3.25;3.25;;;;;20.52;41.36;102167.06;6267294;22;44943;-88
2022/07/17 04:47:57;;;;;;;;;7.25;5.00;;;;;20.56;41.09;102172.38;6267036;22;47145;-88
2022/07/17 04:50:33;;;;;;;;;5.00;5.00;;;;;20.52;41.46;102167.94;6257291;22;45214;-88
2022/07/17 04:53:00;;;;;;;;;3.50;3.00;;;;;20.56;41.02;102183.06;6274857;22;45443;-88
2022/07/17 04:55:25;;;;;;;;;4.00;4.00;;;;;20.47;41.35;102162.72;6248521;22;45515;-87
2022/07/17 04:57:51;;;;;;;;;5.00;4.00;;;;;20.37;41.35;102141.53;6250383;22;45435;-88
2022/07/17 05:00:21;;;;;;;;;3.75;3.00;;;;;20.38;41.27;102140.63;6248841;22;45505;-89
2022/07/17 05:02:49;;;;;;;;;2.25;2.25;;;;;20.44;41.19;102152.06;6248906;22;45316;-87
2022/07/17 05:05:20;;;;;;;;;3.00;3.00;;;;;20.52;41.51;102181.31;6274806;22;45395;-88
2022/07/17 05:07:56;;;;;;;;;;;;;;;;;;;;;
2022/07/17 05:10:35;;;;;;;;;;;;;;;;;;;;;
2022/07/17 05:13:11;;;;;;;;;5.00;3.00;;;;;20.57;41.08;102179.47;6248575;22;68815;-90
2022/07/17 05:15:39;;;;;;;;;3.50;3.50;;;;;20.58;41.63;102173.22;6247145;22;45648;-89
2022/07/17 05:18:08;;;;;;;;;6.25;3.75;;;;;20.49;41.69;102162.66;6247741;22;47126;-88
2022/07/17 05:20:38;;;;;;;;;3.00;3.00;;;;;20.47;41.68;102153.78;6247026;22;45749;-87
2022/07/17 05:23:05;;;;;;;;;3.50;3.50;;;;;20.63;41.61;102184.66;6246722;22;45297;-86
2022/07/17 05:25:44;;;;;;;;;;;;;;;;;;;;;
2022/07/17 05:28:19;;;;;;;;;;;;;;;;;;;;;
2022/07/17 05:30:45;;;;;;;;;2.25;2.00;;;;;20.63;41.27;102151.69;6247810;22;72056;-87
2022/07/17 05:33:11;;;;;;;;;3.75;2.25;;;;;20.80;41.16;102170.91;6251121;22;45243;-86
2022/07/17 05:36:47;;;;;;;;;;;;;;;;;;;;;
2022/07/17 05:39:38;;;;;;;;;;;;;;;;;;;;;
2022/07/17 05:42:58;;;;;;;;;;;;;;;;;;;;;
2022/07/17 05:46:32;;;;;;;;;;;;;;;;;;;;;
2022/07/17 05:49:17;;;;;;;;;3.25;2.00;;;;;20.93;40.83;102183.09;6224473;22;45230;-87
2022/07/17 05:51:55;;;;;;;;;3.50;3.50;;;;;20.92;40.55;102180.44;6246779;22;46314;-86
2022/07/17 05:54:52;;;;;;;;;3.00;2.50;;;;;20.95;40.84;102190.19;6220535;22;45387;-86
2022/07/17 05:57:28;;;;;;;;;;;;;;;;;;;;;
2022/07/17 06:00:22;;;;;;;;;2.25;2.25;;;;;20.90;41.10;102169.78;6247865;22;72567;-85
2022/07/17 06:03:07;;;;;;;;;6.50;5.25;;;;;21.11;40.62;102202.31;6245946;22;46847;-86
2022/07/17 06:12:53;;;;;;;;;2.50;1.50;;;;;21.21;40.67;102174.38;6094215;23;45473;-83
2022/07/17 06:15:27;;;;;;;;;4.75;4.75;;;;;21.20;40.61;102169.03;6069381;23;47440;-82
2022/07/17 06:18:15;;;;;;;;;4.00;4.00;;;;;21.25;40.88;102161.78;6069746;23;45221;-83
2022/07/17 06:20:40;;;;;;;;;5.75;4.50;;;;;21.42;40.44;102175.66;6201242;22;45358;-82
2022/07/17 06:23:11;;;;;;;;;3.00;3.00;;;;;21.46;40.30;102187.19;6220088;22;45393;-82
2022/07/17 06:25:44;;;;;;;;;3.50;3.50;;;;;21.50;40.37;102179.03;6223234;22;47915;-84
2022/07/17 06:28:12;;;;;;;;;3.00;3.00;;;;;21.58;40.39;102179.69;6250556;22;45163;-81
2022/07/17 06:30:55;;;;;;;;;3.75;2.50;;;;;21.56;40.31;102160.09;6221064;22;45203;-81
2022/07/17 06:33:23;;;;;;;;;7.75;6.00;;;;;21.75;39.98;102179.22;6246073;22;45597;-82
2022/07/17 06:35:59;;;;;;;;;5.00;3.00;;;;;21.78;39.80;102172.91;6248065;22;45456;-84
2022/07/17 06:38:28;;;;;;;;;4.75;4.50;;;;;21.91;39.84;102176.13;6220050;22;45323;-86
2022/07/17 06:41:04;;;;;;;;;4.50;4.00;;;;;21.89;39.67;102160.09;6221750;22;45414;-88
2022/07/17 06:43:30;;;;;;;;;5.50;3.75;;;;;21.94;39.43;102146.53;6247103;22;45153;-81
2022/07/17 06:45:55;;;;;;;;;3.00;3.00;;;;;22.07;39.62;102153.31;6247191;22;46266;-80
2022/07/17 06:48:22;;;;;;;;;4.33;4.33;;;;;22.13;39.15;102152.25;6247484;22;45161;-80
2022/07/17 06:50:50;;;;;;;;;5.00;5.00;;;;;22.27;39.18;102166.19;6247631;22;45085;-80
2022/07/17 06:53:15;;;;;;;;;4.00;3.00;;;;;22.30;39.07;102149.13;6244784;22;45436;-80
2022/07/17 06:55:41;;;;;;;;;2.75;2.75;;;;;22.43;39.11;102164.78;6219623;22;46071;-81
2022/07/17 06:58:06;;;;;;;;;3.00;3.00;;;;;22.48;38.62;102158.38;6248945;22;45271;-80
2022/07/17 07:00:34;;;;;;;;;3.00;2.33;;;;;22.59;38.75;102159.84;6249533;22;45377;-80
2022/07/17 07:03:02;;;;;;;;;3.75;2.50;;;;;22.73;38.70;102164.75;6248439;22;45237;-81
2022/07/17 07:05:32;;;;;;;;;2.00;2.00;;;;;22.79;38.47;102148.44;6246812;22;47465;-87
2022/07/17 07:07:58;;;;;;;;;5.33;3.00;;;;;22.90;38.22;102159.72;6221232;22;46015;-81
2022/07/17 07:10:23;;;;;;;;;3.67;3.33;;;;;23.06;38.12;102162.81;6245472;22;45760;-84
2022/07/17 07:12:49;;;;;;;;;5.00;4.00;;;;;23.21;37.54;102180.22;6220086;22;45493;-81
2022/07/17 07:15:14;;;;;;;;;2.00;2.00;;;;;23.27;37.35;102166.56;6221451;22;47314;-81
2022/07/17 07:17:41;;;;;;;;;2.00;2.00;;;;;23.38;37.17;102170.72;6247912;22;45152;-81
2022/07/17 07:20:18;;;;;;;;;3.25;3.25;;;;;23.45;37.35;102166.88;6247678;22;45201;-84
2022/07/17 07:22:43;;;;;;;;;3.75;3.75;;;;;23.60;37.25;102170.84;6221176;22;45342;-81
2022/07/17 07:25:09;;;;;;;;;3.33;3.00;;;;;23.67;36.96;102167.00;6221318;22;46128;-82
2022/07/17 07:27:35;;;;;;;;;3.00;3.00;;;;;23.77;36.85;102160.41;6248613;22;45283;-81
2022/07/17 07:30:00;;;;;;;;;7.25;6.25;;;;;23.89;36.18;102168.00;6221350;22;45361;-81
2022/07/17 07:32:28;;;;;;;;;2.33;2.33;;;;;24.04;36.37;102168.38;6248179;22;45361;-81
2022/07/17 07:34:56;;;;;;;;;2.67;2.67;;;;;24.13;36.39;102160.81;6247546;22;45353;-81
2022/07/17 07:37:21;;;;;;;;;2.00;2.00;;;;;24.23;35.62;102161.38;6247951;22;45193;-81
2022/07/17 07:39:47;;;;;;;;;5.33;3.00;;;;;24.31;35.41;102161.06;6221109;22;45317;-81
2022/07/17 07:42:12;;;;;;;;;3.00;3.00;;;;;24.40;35.81;102149.94;6248549;22;45162;-85
2022/07/17 07:44:40;;;;;;;;;2.00;1.00;;;;;24.55;35.53;102153.88;6221613;22;46902;-85
2022/07/17 07:47:08;;;;;;;;;5.00;3.67;;;;;24.73;34.78;102163.91;6246553;22;45258;-86
2022/07/17 07:49:33;;;;;;;;;3.00;2.00;;;;;24.82;35.14;102152.75;6247370;22;45193;-84
2022/07/17 07:52:01;;;;;;;;;4.00;2.33;;;;;24.98;34.87;102153.00;6221188;22;45411;-81
2022/07/17 07:54:29;;;;;;;;;4.00;4.00;;;;;25.07;34.58;102155.31;6248396;22;46540;-81
2022/07/17 07:56:57;;;;;;;;;2.33;2.33;;;;;25.18;34.38;102154.91;6251471;22;45402;-90
2022/07/17 07:59:22;;;;;;;;;4.00;4.00;;;;;25.35;34.47;102153.31;6221102;22;45456;-82
2022/07/17 08:01:48;;;;;;;;;3.67;3.33;;;;;25.44;34.30;102158.28;6250436;22;45413;-84
2022/07/17 08:04:15;;;;;;;;;1.33;1.33;;;;;25.51;33.99;102157.94;6249290;22;46649;-87
2022/07/17 08:06:48;;;;;;;;;3.00;3.00;;;;;25.61;33.93;102165.63;6249213;22;45288;-90
2022/07/17 08:09:14;;;;;;;;;4.00;3.33;;;;;25.69;33.57;102158.09;6226224;22;45261;-93
2022/07/17 08:11:39;;;;;;;;;7.00;5.50;;;;;25.81;33.41;102156.66;6200214;22;45551;-82
2022/07/17 08:14:04;;;;;;;;;3.67;2.00;;;;;25.92;33.22;102160.63;6251080;22;46522;-82
2022/07/17 08:16:38;;;;;;;;;3.33;3.33;;;;;26.01;33.00;102153.97;6249645;22;45205;-87
2022/07/17 08:19:06;;;;;;;;;4.00;3.00;;;;;26.14;32.87;102156.94;6248881;22;45262;-88
2022/07/17 08:21:34;;;;;;;;;2.00;2.00;;;;;26.28;32.60;102159.03;6247551;22;45421;-88
2022/07/17 08:24:02;;;;;;;;;2.00;2.00;;;;;26.42;32.39;102158.38;6222112;22;47257;-85
2022/07/17 08:26:27;;;;;;;;;3.33;2.33;;;;;26.53;32.20;102156.06;6221085;22;45430;-85
2022/07/17 08:28:53;;;;;;;;;2.67;2.00;;;;;26.62;32.20;102163.69;6220748;22;45304;-84
2022/07/17 08:31:20;;;;;;;;;2.00;2.00;;;;;26.73;31.68;102161.38;6248345;22;45367;-83
2022/07/17 08:33:45;;;;;;;;;2.00;2.00;;;;;26.78;31.20;102163.81;6220554;22;48146;-83
2022/07/17 08:36:11;;;;;;;;;2.67;2.00;;;;;26.87;31.15;102159.81;6220938;22;45778;-86
2022/07/17 08:38:39;;;;;;;;;1.67;1.67;;;;;26.97;31.32;102163.78;6247939;22;45245;-89
2022/07/17 08:41:04;;;;;;;;;4.00;3.00;;;;;27.08;31.08;102160.53;6249326;22;45399;-90
2022/07/17 08:43:30;;;;;;;;;2.67;2.00;;;;;27.12;30.71;102152.22;6221695;22;47282;-89
2022/07/17 08:45:58;;;;;;;;;4.00;4.00;;;;;27.20;30.70;102146.44;6246732;22;45369;-86
2022/07/17 08:48:26;;;;;;;;;2.00;2.00;;;;;27.29;30.15;102151.38;6249584;22;45158;-88
2022/07/17 08:50:55;;;;;;;;;1.67;1.67;;;;;27.38;29.87;102142.78;6222220;22;45427;-84
2022/07/17 08:53:21;;;;;;;;;2.00;2.00;;;;;27.50;29.73;102146.66;6247285;22;48022;-87
2022/07/17 08:55:47;;;;;;;;;3.00;3.00;;;;;27.61;29.62;102148.81;6221600;22;45284;-87
2022/07/17 08:58:17;;;;;;;;;3.67;3.00;;;;;27.68;29.92;102150.25;6221329;22;45204;-84
2022/07/17 09:00:44;;;;;;;;;4.67;3.00;;;;;27.78;29.46;102146.09;6221665;22;45595;-86
2022/07/17 09:03:10;;;;;;;;;2.67;2.00;;;;;27.85;29.28;102149.34;6252612;22;45300;-86
2022/07/17 09:05:42;;;;;;;;;3.00;3.00;;;;;27.95;29.26;102147.03;6225441;22;45371;-89
2022/07/17 09:08:18;;;;;;;;;3.33;2.33;;;;;28.05;28.87;102151.00;6223615;22;45192;-86
2022/07/17 09:10:46;;;;;;;;;2.00;2.00;;;;;28.11;28.88;102153.34;6222198;22;45370;-85
2022/07/17 09:13:18;;;;;;;;;2.00;2.00;;;;;28.15;28.96;102144.97;6249341;22;45303;-88
2022/07/17 09:15:45;;;;;;;;;3.00;3.00;;;;;28.20;28.20;102150.16;6221729;22;45548;-87
2022/07/17 09:18:17;;;;;;;;;3.00;3.00;;;;;28.18;28.23;102151.19;6249143;22;45338;-91
2022/07/17 09:20:54;;;;;;;;;3.00;3.00;;;;;28.25;28.18;102147.16;6222188;22;45666;-88
2022/07/17 09:23:21;;;;;;;;;4.00;4.00;;;;;28.27;28.14;102150.66;6221643;22;47886;-89
2022/07/17 09:25:54;;;;;;;;;2.00;2.00;;;;;28.33;28.29;102153.94;6224588;22;45702;-90
2022/07/17 09:28:23;;;;;;;;;2.33;2.00;;;;;28.43;28.12;102158.81;6251722;22;45278;-93
2022/07/17 09:30:52;;;;;;;;;3.00;2.67;;;;;28.47;27.62;102157.69;6223877;22;45495;-92
2022/07/17 09:33:23;;;;;;;;;2.67;2.67;;;;;28.46;28.18;102154.13;6249795;22;47379;-83
2022/07/17 09:35:52;;;;;;;;;3.00;3.00;;;;;28.45;27.31;102152.38;6249676;22;45074;-89
2022/07/17 09:38:35;;;;;;;;;3.00;3.00;;;;;28.42;27.82;102148.94;6247294;22;45252;-89
2022/07/17 09:41:15;;;;;;;;;1.00;1.00;;;;;28.41;27.34;102147.19;6248910;22;45227;-89
2022/07/17 09:43:52;;;;;;;;;3.33;2.67;;;;;28.48;27.50;102152.19;6245351;22;48094;-90
2022/07/17 09:46:36;;;;;;;;;4.67;3.33;;;;;28.61;27.27;102148.81;6249613;22;45298;-91
2022/07/17 09:49:09;;;;;;;;;2.00;2.00;;;;;28.67;26.41;102148.44;6247572;22;45398;-90
2022/07/17 09:51:41;;;;;;;;;3.00;2.00;;;;;28.72;26.63;102152.63;6273268;22;45559;-90
2022/07/17 09:54:13;;;;;;;;;2.00;2.00;;;;;28.70;26.46;102157.25;6273379;22;47248;-90
2022/07/17 09:56:43;;;;;;;;;3.75;3.75;;;;;28.69;26.58;102150.09;6272712;22;45160;-89
2022/07/17 09:59:16;;;;;;;;;4.50;3.50;;;;;28.74;26.41;102152.56;6272973;22;45344;-90
2022/07/17 10:01:44;;;;;;;;;2.33;2.33;;;;;28.83;26.18;102157.44;6271678;22;45393;-89
2022/07/17 10:04:10;;;;;;;;;3.00;2.75;;;;;28.89;25.93;102148.94;6247263;22;47141;-90
2022/07/17 10:06:36;;;;;;;;;2.75;2.75;;;;;28.92;25.67;102142.44;6246661;22;45387;-90
2022/07/17 10:09:05;;;;;;;;;2.33;2.33;;;;;28.96;25.64;102144.03;6246826;22;45379;-89
2022/07/17 10:11:35;;;;;;;;;2.00;2.00;;;;;29.06;25.33;102149.78;6272747;22;45478;-88
2022/07/17 10:14:05;;;;;;;;;2.00;2.00;;;;;29.17;25.57;102156.34;6271907;22;47100;-90
2022/07/17 10:16:35;;;;;;;;;3.00;3.00;;;;;29.31;25.09;102157.34;6246907;22;45202;-89
2022/07/17 10:19:05;;;;;;;;;2.00;1.00;;;;;29.42;25.17;102158.44;6273476;22;45291;-90
2022/07/17 10:21:33;;;;;;;;;1.75;1.75;;;;;29.50;24.32;102148.97;6246065;22;45280;-90
2022/07/17 10:24:01;;;;;;;;;2.00;2.00;;;;;29.59;24.29;102153.81;6246330;22;47211;-90
2022/07/17 10:26:36;;;;;;;;;2.00;2.00;;;;;29.64;23.57;102151.72;6245640;22;45663;-88
2022/07/17 10:29:25;;;;;;;;;3.00;2.00;;;;;29.71;23.45;102154.94;6246644;22;45367;-90
2022/07/17 10:31:52;;;;;;;;;2.25;2.25;;;;;29.90;23.45;102159.13;6248571;22;45691;-89
2022/07/17 10:34:35;;;;;;;;;3.33;2.33;;;;;30.06;23.59;102161.75;6247484;22;45417;-90
2022/07/17 10:37:14;;;;;;;;;2.00;2.00;;;;;30.13;23.05;102158.66;6247836;22;45169;-88
2022/07/17 10:39:53;;;;;;;;;3.50;3.00;;;;;30.25;23.02;102158.75;6248293;22;45246;-90
2022/07/17 10:42:54;;;;;;;;;2.00;2.00;;;;;30.36;23.13;102160.78;6247792;22;45238;-89
2022/07/17 10:45:24;;;;;;;;;1.50;1.50;;;;;30.49;23.09;102156.28;6247997;22;47535;-90
2022/07/17 10:47:59;;;;;;;;;2.00;2.00;;;;;30.59;22.83;102159.28;6249575;22;45220;-90
2022/07/17 10:50:29;;;;;;;;;3.00;3.00;;;;;30.67;22.70;102151.47;6249278;22;45220;-89
2022/07/17 10:52:59;;;;;;;;;2.00;2.00;;;;;30.77;23.05;102149.91;6247471;22;45544;-90
2022/07/17 10:55:24;;;;;;;;;4.00;4.00;;;;;30.89;22.93;102150.09;6247340;22;46836;-89
2022/07/17 10:57:54;;;;;;;;;1.67;1.67;;;;;30.97;22.46;102151.28;6247682;22;45911;-89
2022/07/17 11:00:19;;;;;;;;;2.00;2.00;;;;;31.01;22.41;102154.72;6247958;22;45280;-90
2022/07/17 11:02:47;;;;;;;;;2.00;2.00;;;;;31.06;22.13;102148.94;6273300;22;45476;-90
2022/07/17 11:05:15;;;;;;;;;3.00;3.00;;;;;31.13;22.01;102139.38;6273740;22;47234;-89
2022/07/17 11:07:59;;;;;;;;;2.33;1.67;;;;;31.23;21.50;102118.72;6273101;22;45198;-91
2022/07/17 11:10:36;;;;;;;;;3.33;3.00;;;;;31.29;21.59;102137.34;6247786;22;45191;-90
2022/07/17 11:13:15;;;;;;;;;2.25;2.25;;;;;31.50;21.45;102139.59;6247671;22;45646;-89
2022/07/17 11:15:50;;;;;;;;;1.67;1.67;;;;;31.60;20.93;102130.66;6246583;22;46619;-90
2022/07/17 11:18:19;;;;;;;;;5.00;4.00;;;;;31.69;20.90;102144.59;6247532;22;45328;-90
2022/07/17 11:20:55;;;;;;;;;1.00;1.00;;;;;31.85;20.58;102135.22;6247788;22;45243;-90
2022/07/17 11:23:24;;;;;;;;;3.25;3.25;;;;;31.98;21.13;102129.78;6273101;22;45431;-91
2022/07/17 11:25:58;;;;;;;;;2.25;2.25;;;;;32.17;20.49;102137.50;6247580;22;47011;-88
2022/07/17 11:28:37;;;;;;;;;5.00;3.00;;;;;32.30;20.42;102132.88;6273487;22;45852;-90
2022/07/17 11:31:16;;;;;;;;;6.25;6.25;;;;;32.47;20.41;102128.94;6247151;22;45360;-90
2022/07/17 11:33:50;;;;;;;;;8.50;7.00;;;;;32.66;20.19;102128.41;6247599;22;45559;-90
2022/07/17 11:36:37;;;;;;;;;3.00;2.50;;;;;32.82;20.07;102122.66;6247009;22;48088;-89
2022/07/17 11:39:12;;;;;;;;;3.00;3.00;;;;;32.89;19.45;102123.09;6247122;22;45832;-89
2022/07/17 11:41:44;;;;;;;;;3.25;2.75;;;;;32.92;20.09;102118.25;6247145;22;45258;-90
2022/07/17 11:44:14;;;;;;;;;2.00;2.00;;;;;33.04;19.50;102111.03;6249804;22;45490;-89
2022/07/17 11:46:47;;;;;;;;;13.50;11.75;;;;;33.22;19.41;102114.16;6247109;22;47085;-90
2022/07/17 11:49:28;;;;;;;;;3.00;3.00;;;;;33.32;19.11;102107.00;6249304;22;45218;-89
2022/07/17 11:51:58;;;;;;;;;32.50;24.75;;;;;33.32;19.67;102114.31;6249043;22;45339;-90
2022/07/17 11:54:25;;;;;;;;;2.00;2.00;;;;;33.34;19.29;102102.28;6274016;22;45397;-89
2022/07/17 11:57:01;;;;;;;;;8.25;6.50;;;;;33.38;19.04;102100.19;6247269;22;48035;-90
2022/07/17 11:59:33;;;;;;;;;3.33;3.33;;;;;33.47;19.15;102091.28;6247062;22;45311;-90
2022/07/17 12:02:14;;;;;;;;;13.00;9.75;;;;;33.56;19.18;102082.34;6247522;22;45408;-90
2022/07/17 12:04:54;;;;;;;;;5.50;3.25;;;;;33.75;19.31;102080.88;6273066;22;45110;-90
2022/07/17 12:07:28;;;;;;;;;3.25;3.25;;;;;33.83;18.40;102079.25;6249183;22;45402;-89
2022/07/17 12:09:56;;;;;;;;;13.00;11.75;;;;;33.82;18.54;102084.88;6247303;22;45313;-90
2022/07/17 12:12:26;;;;;;;;;4.00;4.00;;;;;33.93;18.47;102073.06;6247239;22;45322;-90
2022/07/17 12:14:53;;;;;;;;;11.25;10.25;;;;;34.02;18.36;102073.16;6247423;22;45659;-89